Windlesham, United Kingdom
Current Conditions -  °F | °C
As of 7:20 PM on Monday 20 Oct 2014 (Local Time) from EGLF Reporting Station
Scattered Clouds Scattered Clouds  
Wind Chill: 55°   Ceiling: Unl
Heat Index: 55°   Visibility: 6mi
Dew Point: 50°   Wind: 12mph
Humidity: 82%   Direction: 220°SW
Pressure: 29.94"   Gusts: NA
Location:  51.37°N, 0.65°W
Report Text: EGLF 201820Z 22010KT 9999 SCT039 13/10 Q1014
Loading
Personal Weather Stations






























Interactive Weather Map
Tropical Storm Tracking
New forecast layout! Learn more

10-Day Weather Forecast

Advertisements
Track Severe Weather on mobile